Wyomissing Hills, Pennsylvania
Current Conditions -  °F | °C
As of 8:54 PM on Friday 21 Nov 2014 (Local Time) from KRDG Reporting Station
Clear Clear  
Wind Chill: 21°   Ceiling: Unl
Heat Index: 28°   Visibility: 10mi
Dew Point: 10°   Wind: 7mph
Humidity: 47%   Direction: 280°W
Pressure: 30.5"   Gusts: NA
Location:  40.3275°N, 75.9966°W
Report Text: KRDG 220154Z AUTO 28006KT 10SM CLR M02/M12 A3050 RMK AO2 SLP337 T10221122
Loading
Personal Weather Stations






























Interactive Weather Map New forecast layout! Learn more

10-Day Weather Forecast

Advertisements
Track Severe Weather on mobile